Time;durP1;ratioP1;P1;durP2;ratioP2;P2;SDS_P1;SDS_P2;PMS_P1;PMS_P2;Temp;Humidity;BMP_temperature;BMP_pressure;BME280_temperature;BME280_humidity;BME280_pressure;Samples;Min_cycle;Max_cycle;Signal;HPM_P1;HPM_P2
2023/05/22 00:01:21;;;;;;;10.13;5.90;;;;;;;14.51;99.82;64485.28;5073139;28;20185;-59
2023/05/22 00:03:47;;;;;;;7.72;5.75;;;;;;;14.72;99.94;64505.81;5073288;28;20219;-61
2023/05/22 00:06:13;;;;;;;11.52;6.43;;;;;;;14.81;98.56;64512.59;5088576;28;20192;-59
2023/05/22 00:08:39;;;;;;;9.05;5.88;;;;;;;14.93;97.88;64525.81;5073254;28;20311;-58
2023/05/22 00:11:04;;;;;;;9.07;6.32;;;;;;;14.92;97.32;64530.34;5073106;28;20189;-56
2023/05/22 00:13:30;;;;;;;8.55;5.85;;;;;;;14.89;98.41;64524.50;5073207;28;20201;-59
2023/05/22 00:15:56;;;;;;;11.23;5.95;;;;;;;14.79;99.03;64512.94;5072973;28;20193;-56
2023/05/22 00:18:21;;;;;;;9.82;6.10;;;;;;;14.78;99.92;64511.84;5071240;28;20319;-56
2023/05/22 00:20:47;;;;;;;7.50;5.50;;;;;;;14.79;99.41;64513.50;5072946;28;20180;-55
2023/05/22 00:23:13;;;;;;;9.85;5.97;;;;;;;14.91;98.99;64526.13;5072802;28;20208;-58
2023/05/22 00:25:39;;;;;;;10.13;6.15;;;;;;;14.99;98.88;64535.50;5072778;28;20185;-59
2023/05/22 00:28:04;;;;;;;10.32;5.00;;;;;;;14.99;98.74;64534.94;5071378;28;20223;-58
2023/05/22 00:30:30;;;;;;;12.77;5.05;;;;;;;15.03;99.50;64537.34;5072717;28;20188;-58
2023/05/22 00:32:56;;;;;;;9.05;5.68;;;;;;;15.01;100.00;64537.13;5072946;28;20269;-59
2023/05/22 00:35:22;;;;;;;9.32;5.40;;;;;;;15.04;100.00;64540.44;5072580;28;20227;-56
2023/05/22 00:37:48;;;;;;;5.97;5.15;;;;;;;14.99;100.00;64535.50;5072465;28;20696;-57
2023/05/22 00:40:17;;;;;;;9.27;5.57;;;;;;;15.03;100.00;64541.88;5072450;28;20181;-57
2023/05/22 00:42:43;;;;;;;10.98;5.68;;;;;;;14.95;100.00;64531.09;5072342;28;20275;-56
2023/05/22 00:45:10;;;;;;;7.25;5.63;;;;;;;14.94;100.00;64530.00;5072386;28;20262;-57
2023/05/22 00:47:35;;;;;;;8.25;5.90;;;;;;;14.84;100.00;64521.00;5071086;28;20288;-57
2023/05/22 00:50:02;;;;;;;7.43;4.63;;;;;;;14.88;100.00;64525.94;5072397;28;20283;-59
2023/05/22 00:52:28;;;;;;;8.77;5.43;;;;;;;14.87;100.00;64524.84;5071723;28;20208;-56
2023/05/22 00:54:54;;;;;;;9.25;6.07;;;;;;;14.68;100.00;64503.97;5071434;28;20220;-57
2023/05/22 00:57:20;;;;;;;7.65;5.70;;;;;;;14.73;100.00;64504.38;5070781;28;20212;-57
2023/05/22 00:59:47;;;;;;;7.53;5.85;;;;;;;14.83;100.00;64517.34;5072079;28;20782;-59
2023/05/22 01:02:15;;;;;;;8.40;5.32;;;;;;;14.93;100.00;64528.88;5072013;28;20183;-59
2023/05/22 01:04:47;;;;;;;7.32;5.28;;;;;;;14.94;100.00;64527.47;5072123;28;20244;-60
2023/05/22 01:07:15;;;;;;;7.50;6.03;;;;;;;14.89;100.00;64524.50;5070482;28;20270;-57
2023/05/22 01:09:41;;;;;;;6.53;5.32;;;;;;;14.81;100.00;64518.25;5071142;28;20243;-59
2023/05/22 01:12:41;;;;;;;10.68;5.80;;;;;;;14.84;100.00;64519.00;5072323;28;20197;-57
2023/05/22 01:15:13;;;;;;;9.07;6.50;;;;;;;14.84;100.00;64521.00;5071831;28;20247;-57
2023/05/22 01:17:51;;;;;;;9.40;5.88;;;;;;;14.87;100.00;64522.28;5072177;28;20221;-57
2023/05/22 01:20:35;;;;;;;9.55;5.75;;;;;;;14.94;100.00;64532.53;5071989;28;20188;-58
2023/05/22 01:23:17;;;;;;;7.28;5.70;;;;;;;14.76;100.00;64509.66;5072011;28;20195;-59
2023/05/22 01:25:55;;;;;;;8.93;5.72;;;;;;;14.76;100.00;64512.19;5072093;28;20193;-57
2023/05/22 01:28:39;;;;;;;7.70;5.97;;;;;;;14.74;100.00;64507.47;5071978;28;20312;-56
2023/05/22 01:31:16;;;;;;;10.95;5.63;;;;;;;14.63;100.00;64498.47;5070756;28;20180;-57
2023/05/22 01:33:49;;;;;;;8.07;5.30;;;;;;;14.74;100.00;64507.47;5071748;28;20217;-59
2023/05/22 01:36:18;;;;;;;7.63;5.20;;;;;;;14.79;100.00;64512.94;5071780;28;20177;-58
2023/05/22 01:38:44;;;;;;;8.40;5.95;;;;;;;14.79;100.00;64515.50;5071864;28;20217;-59
2023/05/22 01:41:11;;;;;;;7.43;5.68;;;;;;;14.79;100.00;64512.94;5071827;28;20674;-59
2023/05/22 01:43:36;;;;;;;8.90;5.70;;;;;;;14.78;100.00;64514.41;5071740;28;20209;-57
2023/05/22 01:46:02;;;;;;;10.43;6.07;;;;;;;14.77;100.00;64511.31;5071737;28;20242;-57
2023/05/22 01:48:28;;;;;;;11.52;6.43;;;;;;;14.66;100.00;64499.22;5071559;28;20211;-56
2023/05/22 01:50:54;;;;;;;11.13;6.10;;;;;;;14.58;100.00;64490.44;5071532;28;20642;-55
2023/05/22 01:53:27;;;;;;;9.18;5.97;;;;;;;14.43;100.00;64471.41;5071482;28;20226;-55
2023/05/22 01:55:54;;;;;;;9.77;6.53;;;;;;;14.45;100.00;64475.59;5071391;28;20650;-61
2023/05/22 01:58:36;;;;;;;7.53;5.53;;;;;;;14.42;100.00;64472.31;5071179;28;20680;-59
2023/05/22 02:01:02;;;;;;;7.57;6.43;;;;;;;14.40;100.00;64473.19;5071364;28;20259;-63
2023/05/22 02:03:31;;;;;;;8.35;6.88;;;;;;;14.43;100.00;64471.41;5071280;28;20222;-59
2023/05/22 02:06:00;;;;;;;6.68;5.47;;;;;;;14.44;100.00;64474.50;5071581;28;20643;-59
2023/05/22 02:08:26;;;;;;;11.25;6.10;;;;;;;14.37;100.00;64467.34;5071283;28;20205;-59
2023/05/22 02:10:55;;;;;;;12.90;6.65;;;;;;;14.37;100.00;64467.34;5071014;28;20242;-60
2023/05/22 02:13:21;;;;;;;7.65;6.55;;;;;;;14.27;100.00;64456.34;5071169;28;20299;-56
2023/05/22 02:15:47;;;;;;;14.45;6.65;;;;;;;14.26;100.00;64460.31;5071139;28;20188;-59
2023/05/22 02:18:13;;;;;;;9.75;6.35;;;;;;;14.25;100.00;64454.69;5071225;28;20212;-59
2023/05/22 02:20:39;;;;;;;10.13;6.75;;;;;;;14.23;100.00;64451.94;5070962;28;20189;-59
2023/05/22 02:23:04;;;;;;;10.45;6.60;;;;;;;14.24;100.00;64455.59;5070970;28;20585;-58
2023/05/22 02:25:30;;;;;;;10.10;6.60;;;;;;;14.21;100.00;64452.84;5070930;28;20195;-60
2023/05/22 02:27:55;;;;;;;7.38;6.43;;;;;;;14.25;100.00;64454.16;5070818;28;20192;-61
2023/05/22 02:30:20;;;;;;;9.13;6.60;;;;;;;14.14;100.00;64442.06;5070849;28;20189;-54
2023/05/22 02:32:46;;;;;;;9.55;6.60;;;;;;;14.16;100.00;64447.34;5070980;28;20185;-57
2023/05/22 02:35:11;;;;;;;11.00;6.78;;;;;;;14.11;100.00;64441.31;5070676;28;20200;-65
2023/05/22 02:37:37;;;;;;;10.10;7.28;;;;;;;14.05;100.00;64429.66;5070573;28;20244;-58
2023/05/22 02:40:06;;;;;;;10.27;7.50;;;;;;;14.01;100.00;64430.88;5070751;28;20212;-55
2023/05/22 02:42:33;;;;;;;11.70;6.75;;;;;;;14.00;100.00;64424.13;5075107;28;20215;-59
2023/05/22 02:44:58;;;;;;;10.63;6.60;;;;;;;14.01;100.00;64430.31;5077101;28;20732;-58
2023/05/22 02:47:23;;;;;;;12.90;7.25;;;;;;;13.99;100.00;64426.13;5077246;28;20263;-59
2023/05/22 02:49:49;;;;;;;12.30;7.22;;;;;;;14.04;100.00;64436.69;5077191;28;20280;-56
2023/05/22 02:52:15;;;;;;;9.10;7.07;;;;;;;13.96;100.00;64422.84;5077266;28;20180;-56
2023/05/22 02:54:40;;;;;;;11.05;7.72;;;;;;;14.01;100.00;64427.78;5075870;28;20673;-58
2023/05/22 02:57:06;;;;;;;11.98;7.68;;;;;;;13.90;100.00;64418.22;5076973;28;20195;-56
2023/05/22 02:59:32;;;;;;;10.18;6.63;;;;;;;13.74;100.00;64400.66;5076916;28;20295;-57
2023/05/22 03:01:57;;;;;;;9.00;6.20;;;;;;;13.72;100.00;64395.94;5077052;28;20268;-56
2023/05/22 03:04:23;;;;;;;12.07;6.68;;;;;;;13.71;100.00;64394.84;5077438;28;20234;-56
2023/05/22 03:06:49;;;;;;;11.48;6.80;;;;;;;13.67;100.00;64391.00;5077048;28;20227;-57
2023/05/22 03:09:15;;;;;;;8.85;6.35;;;;;;;13.61;100.00;64381.34;5075975;28;20216;-58
2023/05/22 03:11:40;;;;;;;12.63;6.93;;;;;;;13.68;100.00;64389.56;5076909;28;20222;-58
2023/05/22 03:14:06;;;;;;;9.40;7.07;;;;;;;13.79;100.00;64404.19;5076828;28;20213;-58
2023/05/22 03:16:31;;;;;;;11.32;7.07;;;;;;;13.67;100.00;64390.44;5076987;28;20176;-60
2023/05/22 03:19:10;;;;;;;10.55;7.00;;;;;;;13.73;100.00;64399.56;5059130;28;20232;-58
2023/05/22 03:21:36;;;;;;;8.35;6.07;;;;;;;13.72;100.00;64399.00;5076990;28;20186;-58
2023/05/22 03:24:02;;;;;;;9.63;6.35;;;;;;;13.61;100.00;64386.94;5076839;28;20217;-58
2023/05/22 03:26:27;;;;;;;14.18;7.43;;;;;;;13.84;100.00;64407.13;5075638;28;20546;-56
2023/05/22 03:28:54;;;;;;;10.60;6.20;;;;;;;13.79;100.00;64404.19;5076749;28;20222;-57
2023/05/22 03:31:19;;;;;;;11.32;7.25;;;;;;;13.77;100.00;64404.50;5076766;28;20188;-57
2023/05/22 03:33:44;;;;;;;12.98;7.45;;;;;;;13.89;100.00;64414.59;5076956;28;20684;-55
2023/05/22 03:36:10;;;;;;;8.88;6.13;;;;;;;13.72;100.00;64395.94;5076924;28;20173;-58
2023/05/22 03:38:36;;;;;;;9.23;6.43;;;;;;;13.80;100.00;64407.78;5076819;28;20220;-57
2023/05/22 03:41:01;;;;;;;13.00;6.78;;;;;;;13.95;100.00;64423.72;5076869;28;20188;-56
2023/05/22 03:43:27;;;;;;;11.32;7.40;;;;;;;13.91;100.00;64419.34;5076497;28;20760;-57
2023/05/22 03:45:52;;;;;;;12.38;7.43;;;;;;;13.70;100.00;64396.81;5076560;28;20188;-56
2023/05/22 03:48:17;;;;;;;10.10;7.22;;;;;;;13.73;100.00;64397.03;5076800;28;20694;-59
2023/05/22 03:50:44;;;;;;;10.80;7.60;;;;;;;13.59;100.00;64384.19;5076797;28;20189;-56
2023/05/22 03:53:09;;;;;;;10.25;7.47;;;;;;;13.59;100.00;64381.66;5073096;28;20220;-57
2023/05/22 03:55:34;;;;;;;9.52;7.25;;;;;;;13.66;100.00;64389.34;5073090;28;20268;-58
2023/05/22 03:58:00;;;;;;;12.57;7.88;;;;;;;13.65;100.00;64390.78;5073315;28;20227;-60
2023/05/22 04:00:25;;;;;;;9.55;7.03;;;;;;;13.74;100.00;64401.22;5073324;28;20188;-58
2023/05/22 04:02:51;;;;;;;12.23;6.97;;;;;;;13.78;100.00;64403.06;5055201;28;20242;-56
2023/05/22 04:05:16;;;;;;;11.52;7.47;;;;;;;13.84;100.00;64409.09;5073032;28;20296;-55
2023/05/22 04:07:41;;;;;;;14.23;7.28;;;;;;;14.04;100.00;64431.06;5073224;28;20275;-55
2023/05/22 04:10:07;;;;;;;10.88;6.65;;;;;;;13.98;100.00;64427.00;5088905;28;20690;-56
2023/05/22 04:12:33;;;;;;;10.43;6.90;;;;;;;14.01;100.00;64430.31;5073148;28;20609;-56
2023/05/22 04:14:58;;;;;;;10.15;7.93;;;;;;;14.04;100.00;64429.09;5072956;28;20213;-55
2023/05/22 04:17:29;;;;;;;11.50;7.05;;;;;;;14.09;100.00;64437.13;5072791;28;20215;-56
2023/05/22 04:19:57;;;;;;;12.48;8.02;;;;;;;14.09;100.00;64436.56;5073050;28;20212;-56
2023/05/22 04:22:22;;;;;;;11.00;8.30;;;;;;;13.92;100.00;64415.91;5073084;28;20706;-56
2023/05/22 04:24:48;;;;;;;10.85;7.65;;;;;;;14.06;100.00;64435.78;5072897;28;20287;-55
2023/05/22 04:27:14;;;;;;;14.52;7.35;;;;;;;14.16;100.00;64447.34;5072878;28;20650;-55
2023/05/22 04:29:40;;;;;;;10.48;7.25;;;;;;;13.98;100.00;64424.47;5072541;28;20686;-54
2023/05/22 04:32:09;;;;;;;9.45;8.30;;;;;;;14.32;100.00;64458.78;5072676;28;20199;-55
2023/05/22 04:34:37;;;;;;;12.00;7.78;;;;;;;14.88;100.00;64523.41;5072825;28;20213;-55
2023/05/22 04:37:05;;;;;;;10.07;7.43;;;;;;;15.20;100.00;64560.00;5072847;28;20192;-55
2023/05/22 04:39:30;;;;;;;9.40;7.45;;;;;;;15.91;100.00;64638.16;5073024;28;20225;-57
2023/05/22 04:41:57;;;;;;;11.18;7.07;;;;;;;16.49;100.00;64699.47;5072640;28;20620;-58
2023/05/22 04:44:22;;;;;;;10.25;7.85;;;;;;;16.97;100.00;64754.31;5072848;28;20213;-56
2023/05/22 04:46:50;;;;;;;13.35;7.43;;;;;;;16.09;99.59;64657.94;5072680;28;20299;-57
2023/05/22 04:49:15;;;;;;;11.35;7.25;;;;;;;15.51;100.00;64594.69;5072569;28;20223;-58
2023/05/22 04:51:40;;;;;;;11.20;7.18;;;;;;;15.28;100.00;64564.28;5072515;28;20268;-60
2023/05/22 04:54:06;;;;;;;10.02;7.18;;;;;;;14.96;100.00;64531.66;5071720;28;20212;-58
2023/05/22 04:56:31;;;;;;;12.43;6.88;;;;;;;14.93;100.00;64526.34;5072623;28;20193;-60
2023/05/22 04:58:57;;;;;;;13.82;7.95;;;;;;;14.83;100.00;64520.44;5072129;28;20228;-59
2023/05/22 05:01:23;;;;;;;14.35;7.22;;;;;;;14.81;100.00;64513.16;5072276;28;20618;-56
2023/05/22 05:03:49;;;;;;;10.65;7.43;;;;;;;14.82;100.00;64518.78;5072421;28;20283;-57
2023/05/22 05:06:15;;;;;;;12.90;7.65;;;;;;;15.04;100.00;64542.97;5071922;28;20567;-57
2023/05/22 05:08:43;;;;;;;12.60;8.18;;;;;;;15.13;100.00;64550.88;5072559;28;20205;-56
2023/05/22 05:11:08;;;;;;;13.80;7.32;;;;;;;15.00;100.00;64536.59;5071998;28;20181;-57
2023/05/22 05:13:34;;;;;;;17.52;8.07;;;;;;;14.95;100.00;64533.06;5072207;28;20292;-57
2023/05/22 05:15:59;;;;;;;13.52;7.28;;;;;;;14.95;100.00;64531.09;5071939;28;20185;-58
2023/05/22 05:18:26;;;;;;;13.57;7.40;;;;;;;14.88;100.00;64522.84;5071844;28;20212;-58
2023/05/22 05:20:52;;;;;;;13.02;7.05;;;;;;;14.92;100.00;64527.81;5072150;28;20184;-60
2023/05/22 05:23:17;;;;;;;12.80;6.40;;;;;;;14.94;100.00;64529.44;5072137;28;20579;-59
2023/05/22 05:25:43;;;;;;;11.43;6.85;;;;;;;14.91;100.00;64526.13;5087346;28;20557;-58
2023/05/22 05:28:11;;;;;;;12.25;6.70;;;;;;;14.91;100.00;64526.13;5071945;28;20197;-58
2023/05/22 05:30:38;;;;;;;11.15;7.40;;;;;;;15.09;100.00;64546.47;5071781;28;20200;-60
2023/05/22 05:33:04;;;;;;;13.95;6.22;;;;;;;15.08;100.00;64547.94;5071799;28;20590;-59
2023/05/22 05:35:29;;;;;;;11.77;6.60;;;;;;;14.97;100.00;64535.81;5070147;28;20181;-59
2023/05/22 05:37:55;;;;;;;15.48;7.05;;;;;;;15.02;100.00;64541.34;5069665;28;20271;-60
2023/05/22 05:40:20;;;;;;;17.10;7.45;;;;;;;15.04;100.00;64541.00;5070861;28;20564;-58
2023/05/22 05:42:46;;;;;;;9.23;6.97;;;;;;;15.07;100.00;64544.28;5071572;28;20197;-59
2023/05/22 05:45:12;;;;;;;14.18;6.57;;;;;;;15.12;100.00;64549.78;5071865;28;20189;-58
2023/05/22 05:47:37;;;;;;;9.65;6.97;;;;;;;15.23;100.00;64560.78;5071808;28;20216;-58
2023/05/22 05:50:03;;;;;;;8.68;4.85;;;;;;;15.65;91.51;64607.00;5071424;28;20698;-58
2023/05/22 05:52:31;;;;;;;7.70;3.80;;;;;;;15.74;85.70;64614.91;5071798;28;20287;-57
2023/05/22 05:54:59;;;;;;;8.95;4.10;;;;;;;15.71;86.41;64616.13;5071483;28;20254;-65
2023/05/22 05:57:25;;;;;;;7.30;4.30;;;;;;;15.66;86.93;64608.09;5071339;28;20242;-59
2023/05/22 05:59:50;;;;;;;6.07;3.72;;;;;;;15.75;85.06;64621.09;5071211;28;20208;-58
2023/05/22 06:02:16;;;;;;;6.85;4.07;;;;;;;15.91;85.06;64633.06;5071139;28;20622;-59
2023/05/22 06:04:41;;;;;;;7.72;4.90;;;;;;;15.77;85.85;64622.75;5071365;28;20259;-57
2023/05/22 06:07:07;;;;;;;7.75;4.47;;;;;;;15.82;83.19;64623.72;5071155;28;20185;-55
2023/05/22 06:09:32;;;;;;;9.10;4.43;;;;;;;15.83;84.71;64629.34;5071433;28;20219;-59
2023/05/22 06:11:58;;;;;;;10.07;3.95;;;;;;;15.97;84.29;64642.22;5069894;28;20265;-59
2023/05/22 06:14:23;;;;;;;8.38;4.22;;;;;;;16.20;81.37;64670.06;5070980;28;20197;-59
2023/05/22 06:16:48;;;;;;;6.97;4.05;;;;;;;16.26;79.10;64673.56;5070481;28;20212;-59
2023/05/22 06:19:14;;;;;;;8.95;4.15;;;;;;;16.33;78.77;64681.28;5071226;28;20217;-57
2023/05/22 06:21:39;;;;;;;8.02;4.20;;;;;;;16.32;81.71;64678.16;5071140;28;20192;-57
2023/05/22 06:24:05;;;;;;;7.50;4.65;;;;;;;16.09;82.62;64654.84;5071075;28;20717;-59
2023/05/22 06:26:30;;;;;;;7.82;5.13;;;;;;;16.29;81.89;64676.88;5070738;28;20212;-58
2023/05/22 06:28:56;;;;;;;6.25;4.28;;;;;;;16.14;83.98;64660.38;5071361;28;20295;-61
2023/05/22 06:31:21;;;;;;;11.27;5.38;;;;;;;16.34;82.14;64685.47;5070983;28;20192;-56
2023/05/22 06:33:47;;;;;;;6.82;3.65;;;;;;;16.49;78.18;64696.91;5070853;28;20729;-57
2023/05/22 06:36:13;;;;;;;8.20;4.05;;;;;;;16.74;74.26;64727.00;5070820;28;20666;-56
2023/05/22 06:38:39;;;;;;;9.07;4.22;;;;;;;16.64;77.16;64715.44;5071062;28;20209;-56
2023/05/22 06:41:05;;;;;;;7.45;3.80;;;;;;;16.56;79.29;64709.16;5070817;28;20267;-56
2023/05/22 06:43:30;;;;;;;8.13;4.00;;;;;;;16.86;76.79;64739.66;5070924;28;20303;-56
2023/05/22 06:45:55;;;;;;;7.90;4.68;;;;;;;16.95;78.91;64749.03;5070684;28;20271;-57
2023/05/22 06:48:21;;;;;;;6.88;4.05;;;;;;;17.13;73.43;64768.84;5070731;28;20219;-58
2023/05/22 06:50:46;;;;;;;11.00;4.60;;;;;;;17.27;73.51;64781.72;5070499;28;20184;-56
2023/05/22 06:53:12;;;;;;;8.60;4.50;;;;;;;17.42;76.85;64801.34;5070901;28;20227;-56
2023/05/22 06:55:37;;;;;;;9.13;5.00;;;;;;;17.37;80.86;64795.81;5070625;28;20538;-57
2023/05/22 06:58:03;;;;;;;6.88;3.70;;;;;;;17.64;78.25;64825.06;5070683;28;20302;-58
2023/05/22 07:00:28;;;;;;;11.85;4.13;;;;;;;17.83;75.24;64842.91;5070673;28;20633;-58
2023/05/22 07:02:53;;;;;;;7.90;4.53;;;;;;;17.92;75.20;64855.91;5070653;28;20192;-59
2023/05/22 07:05:19;;;;;;;6.18;3.45;;;;;;;17.97;69.91;64861.44;5070430;28;20569;-59
2023/05/22 07:07:45;;;;;;;8.05;3.90;;;;;;;17.99;70.21;64860.53;5070747;28;20193;-58
2023/05/22 07:10:10;;;;;;;11.02;4.35;;;;;;;17.90;75.76;64850.59;5060196;22;20240;-57
2023/05/22 07:12:36;;;;;;;7.55;3.97;;;;;;;17.99;77.02;64861.09;5050504;28;20534;-58
2023/05/22 07:15:01;;;;;;;5.65;3.30;;;;;;;17.93;78.15;64857.03;5050436;28;20204;-57
2023/05/22 07:17:27;;;;;;;6.07;4.28;;;;;;;18.10;78.82;64877.78;5050114;28;20194;-60
2023/05/22 07:19:52;;;;;;;9.15;4.28;;;;;;;18.05;79.32;64870.25;5050193;28;20194;-58
2023/05/22 07:22:17;;;;;;;10.55;3.92;;;;;;;18.04;75.41;64866.59;5050338;28;20190;-56
2023/05/22 07:24:43;;;;;;;9.98;4.78;;;;;;;17.98;74.55;64860.00;5050137;28;20205;-58
2023/05/22 07:27:10;;;;;;;7.13;4.45;;;;;;;18.35;71.33;64900.25;5050194;28;20273;-57
2023/05/22 07:29:35;;;;;;;5.53;4.18;;;;;;;18.26;75.43;64890.31;5052305;28;20205;-57
2023/05/22 07:32:01;;;;;;;8.52;4.65;;;;;;;18.01;76.13;64863.31;5053609;28;20273;-58
2023/05/22 07:34:30;;;;;;;11.98;4.32;;;;;;;17.98;76.68;64860.00;5053645;28;20580;-59
2023/05/22 07:36:56;;;;;;;7.00;4.38;;;;;;;18.09;77.65;64871.56;5053651;28;20192;-58
2023/05/22 07:39:22;;;;;;;7.25;4.22;;;;;;;18.43;75.66;64909.09;5053491;28;20221;-56
2023/05/22 07:41:50;;;;;;;8.23;4.07;;;;;;;18.54;77.92;64923.22;5053580;28;20185;-59
2023/05/22 07:44:15;;;;;;;6.13;3.90;;;;;;;18.38;74.64;64904.09;5053851;28;20309;-60
2023/05/22 07:46:41;;;;;;;6.82;4.15;;;;;;;18.23;76.17;64889.56;5053466;28;20260;-59
2023/05/22 07:49:06;;;;;;;12.18;5.40;;;;;;;18.42;74.25;64911.06;5053186;28;20643;-59
2023/05/22 07:51:32;;;;;;;8.38;4.55;;;;;;;18.41;76.60;64907.41;5053351;28;20656;-57
2023/05/22 07:53:57;;;;;;;8.65;4.35;;;;;;;18.28;77.87;64893.06;5053540;28;20213;-56
2023/05/22 07:56:31;;;;;;;10.60;4.85;;;;;;;18.48;77.33;64919.72;5053296;28;20204;-56
2023/05/22 07:58:56;;;;;;;6.05;4.20;;;;;;;18.54;79.96;64923.22;5053274;28;20256;-59
2023/05/22 08:01:22;;;;;;;11.43;4.75;;;;;;;18.74;78.15;64942.72;5053149;28;20217;-59
2023/05/22 08:03:47;;;;;;;9.57;4.43;;;;;;;19.00;75.43;64971.41;5053081;28;20242;-59
2023/05/22 08:06:15;;;;;;;8.15;4.22;;;;;;;18.89;71.05;64962.38;5053211;28;20281;-59
2023/05/22 08:08:47;;;;;;;5.88;4.28;;;;;;;18.99;68.80;64970.31;5053503;28;20652;-57
2023/05/22 08:11:12;;;;;;;7.43;4.43;;;;;;;18.77;71.27;64948.59;5053110;28;20186;-57
2023/05/22 08:13:38;;;;;;;9.40;3.88;;;;;;;19.00;69.08;64971.41;5053252;28;20570;-60
2023/05/22 08:16:03;;;;;;;7.28;3.65;;;;;;;18.93;69.53;64964.25;5053154;28;20184;-57
2023/05/22 08:18:29;;;;;;;8.25;3.55;;;;;;;19.00;66.73;64969.41;5052506;28;20236;-57
2023/05/22 08:20:55;;;;;;;8.45;3.63;;;;;;;19.21;69.47;64999.69;5052782;28;20290;-58
2023/05/22 08:23:20;;;;;;;8.90;3.97;;;;;;;19.52;66.85;65028.28;5052794;28;20572;-58
2023/05/22 08:25:45;;;;;;;11.52;4.10;;;;;;;19.64;67.63;65038.97;5052813;28;20277;-57
2023/05/22 08:28:11;;;;;;;3.97;3.55;;;;;;;19.82;69.73;65063.97;5052941;28;20302;-57
2023/05/22 08:30:36;;;;;;;4.35;3.80;;;;;;;19.98;63.74;65079.63;5052590;28;20594;-58
2023/05/22 08:33:02;;;;;;;6.45;4.15;;;;;;;19.87;68.11;65066.94;5052543;28;20248;-56
2023/05/22 08:35:27;;;;;;;9.43;3.33;;;;;;;20.12;59.63;65096.56;5052596;28;20644;-56
2023/05/22 08:37:53;;;;;;;5.35;3.22;;;;;;;20.30;62.49;65113.91;5052718;28;20225;-57
2023/05/22 08:40:20;;;;;;;6.32;2.92;;;;;;;20.39;61.87;65124.41;5051946;28;20178;-59
2023/05/22 08:42:46;;;;;;;5.70;2.53;;;;;;;20.43;60.20;65128.25;5052409;28;20236;-56
2023/05/22 08:45:14;;;;;;;8.65;3.30;;;;;;;20.61;58.86;65148.72;5052285;28;20568;-56
2023/05/22 08:47:43;;;;;;;4.25;2.65;;;;;;;20.40;57.06;65127.53;5052361;28;21118;-55
2023/05/22 08:50:09;;;;;;;4.30;3.08;;;;;;;20.39;57.98;65124.41;5052464;28;20280;-56
2023/05/22 08:52:46;;;;;;;6.75;3.08;;;;;;;20.55;58.97;65141.53;5052476;28;20281;-58
2023/05/22 08:55:12;;;;;;;3.58;2.45;;;;;;;20.61;56.17;65148.72;5052530;28;20667;-57
2023/05/22 08:57:38;;;;;;;3.63;2.78;;;;;;;20.74;54.40;65165.09;5052080;28;20216;-58
2023/05/22 09:00:06;;;;;;;4.05;2.60;;;;;;;20.90;56.21;65182.78;5051942;28;20228;-58
2023/05/22 09:02:32;;;;;;;4.88;2.95;;;;;;;20.87;54.63;65176.88;5052303;28;20242;-60
2023/05/22 09:04:57;;;;;;;6.47;3.35;;;;;;;21.03;56.93;65194.59;5051996;28;20205;-60
2023/05/22 09:07:23;;;;;;;7.65;2.90;;;;;;;20.89;52.78;65179.09;5052152;28;20265;-58
2023/05/22 09:09:49;;;;;;;4.57;3.15;;;;;;;21.12;49.77;65204.00;5051829;28;20218;-58
2023/05/22 09:12:15;;;;;;;4.07;2.63;;;;;;;21.06;47.92;65197.94;5051861;28;20630;-56
2023/05/22 09:14:44;;;;;;;8.77;3.00;;;;;;;20.97;53.25;65187.94;5051867;28;20709;-57
2023/05/22 09:17:13;;;;;;;3.75;2.50;;;;;;;21.10;50.67;65202.34;5052116;28;20181;-56
2023/05/22 09:19:43;;;;;;;4.30;3.25;;;;;;;21.14;49.83;65206.78;5051981;28;20217;-58
2023/05/22 09:22:09;;;;;;;13.52;3.10;;;;;;;21.21;49.93;65214.50;5051853;28;20178;-59
2023/05/22 09:24:42;;;;;;;6.20;2.80;;;;;;;21.34;51.14;65225.75;5051899;28;20213;-59
2023/05/22 09:27:09;;;;;;;5.25;2.40;;;;;;;21.12;51.49;65198.88;5051869;28;20209;-57
2023/05/22 09:29:51;;;;;;;9.07;2.85;;;;;;;21.34;51.67;65228.88;5051751;28;20228;-57
2023/05/22 09:32:17;;;;;;;6.10;3.47;;;;;;;21.44;49.29;65242.50;5051765;28;20249;-56
2023/05/22 09:34:46;;;;;;;7.45;2.42;;;;;;;21.25;50.10;65216.38;5051360;28;20217;-55
2023/05/22 09:37:16;;;;;;;8.95;2.92;;;;;;;21.24;50.18;65215.25;5051442;28;20205;-58
2023/05/22 09:39:51;;;;;;;3.25;2.67;;;;;;;21.03;52.66;65194.59;5051189;28;20217;-56
2023/05/22 09:42:17;;;;;;;3.47;2.53;;;;;;;21.20;47.26;65213.41;5051456;28;20260;-57
2023/05/22 09:44:47;;;;;;;5.13;3.40;;;;;;;21.23;48.64;65216.19;5051476;28;20660;-55
2023/05/22 09:47:14;;;;;;;7.80;3.05;;;;;;;21.10;47.71;65199.78;5051666;28;20773;-60
2023/05/22 09:49:41;;;;;;;7.22;3.20;;;;;;;21.11;51.19;65202.91;5050056;28;20777;-58
2023/05/22 09:52:08;;;;;;;6.22;3.15;;;;;;;21.04;51.84;65195.72;5050165;28;20185;-59
2023/05/22 09:54:34;;;;;;;7.32;2.78;;;;;;;20.92;50.39;65182.44;5051223;28;20275;-59
2023/05/22 09:57:03;;;;;;;8.90;2.78;;;;;;;20.80;51.30;65169.16;5051330;28;20182;-59
2023/05/22 09:59:30;;;;;;;5.13;3.15;;;;;;;20.69;51.50;65155.00;5051528;28;20218;-58
2023/05/22 10:01:56;;;;;;;8.63;3.53;;;;;;;20.69;50.88;65154.44;5051248;28;20189;-60
2023/05/22 10:04:22;;;;;;;5.95;2.45;;;;;;;20.48;50.21;65136.34;5051552;28;20679;-59
2023/05/22 10:06:53;;;;;;;5.40;2.78;;;;;;;20.71;50.90;65159.22;5051031;28;20185;-61
2023/05/22 10:09:24;;;;;;;4.15;2.33;;;;;;;21.11;53.06;65203.44;5050793;28;20296;-59
2023/05/22 10:11:53;;;;;;;8.63;3.53;;;;;;;21.19;55.60;65209.19;5051122;28;20552;-58
2023/05/22 10:14:19;;;;;;;4.35;3.22;;;;;;;21.04;56.87;65193.16;5049690;28;20636;-58
2023/05/22 10:16:45;;;;;;;5.72;3.38;;;;;;;20.81;57.91;65167.69;5051010;28;20189;-58
2023/05/22 10:19:11;;;;;;;9.50;3.28;;;;;;;20.70;60.63;65160.69;5050774;28;20278;-58
2023/05/22 10:21:40;;;;;;;9.35;3.45;;;;;;;20.77;60.73;65166.41;5050887;28;20200;-58
2023/05/22 10:24:06;;;;;;;7.97;3.92;;;;;;;20.59;60.98;65148.50;5050621;28;20217;-59
2023/05/22 10:26:31;;;;;;;9.70;3.80;;;;;;;20.50;61.11;65133.44;5050686;28;20208;-59
2023/05/22 10:29:09;;;;;;;6.38;3.67;;;;;;;20.46;61.12;65131.59;5051009;28;20221;-57
2023/05/22 10:32:23;;;;;;;8.93;3.92;;;;;;;20.23;63.79;65109.28;5050598;28;20191;-58
2023/05/22 10:35:14;;;;;;;7.60;4.72;;;;;;;20.27;93.87;65110.59;5050628;28;20217;-57
2023/05/22 10:38:21;;;;;;;13.93;5.38;;;;;;;20.14;93.64;65096.22;5050786;28;20607;-57
2023/05/22 10:40:47;;;;;;;12.05;5.03;;;;;;;20.44;94.77;65135.03;4970106;28;20203;-60
2023/05/22 10:43:13;;;;;;;12.45;4.93;;;;;;;20.74;94.05;65162.53;5036515;28;20293;-60
2023/05/22 10:45:40;;;;;;;6.93;4.82;;;;;;;20.95;92.24;65185.19;5050728;28;20184;-57
2023/05/22 10:48:11;;;;;;;6.70;4.25;;;;;;;21.34;90.44;65228.34;5050566;28;20292;-57
2023/05/22 10:50:37;;;;;;;4.53;4.07;;;;;;;20.78;87.00;65170.06;5050596;28;20204;-60
2023/05/22 10:53:22;;;;;;;4.53;3.78;;;;;;;19.86;84.70;65063.81;5050708;28;20284;-59
2023/05/22 10:55:55;;;;;;;8.32;4.45;;;;;;;19.62;91.33;65039.88;5050406;28;20682;-59
2023/05/22 10:58:33;;;;;;;6.40;4.40;;;;;;;19.46;99.22;65024.78;5050671;28;20247;-59
2023/05/22 11:01:18;;;;;;;6.97;4.47;;;;;;;19.44;97.21;65019.44;5050722;28;20187;-60
2023/05/22 11:04:08;;;;;;;8.65;4.30;;;;;;;19.55;90.57;65034.72;5052721;28;20224;-59
2023/05/22 11:06:46;;;;;;;8.30;4.97;;;;;;;20.01;95.84;65082.97;5054081;28;20193;-56
2023/05/22 11:09:28;;;;;;;7.88;4.55;;;;;;;20.13;94.07;65092.53;5053894;28;20225;-59
2023/05/22 11:12:23;;;;;;;6.80;4.40;;;;;;;19.55;97.78;65032.16;5053923;28;20197;-56
2023/05/22 11:14:48;;;;;;;10.52;4.18;;;;;;;19.43;87.58;65018.91;5053920;28;20220;-54
2023/05/22 11:17:18;;;;;;;6.80;4.47;;;;;;;19.78;96.25;65060.09;5053794;28;20186;-55
2023/05/22 11:19:48;;;;;;;11.50;5.30;;;;;;;19.68;100.00;65045.94;5053755;28;20221;-56
2023/05/22 11:22:16;;;;;;;6.50;4.15;;;;;;;18.67;100.00;64935.56;5053644;28;20182;-56
2023/05/22 11:24:42;;;;;;;4.63;3.30;;;;;;;18.13;91.13;64879.09;5053677;28;20262;-57
2023/05/22 11:27:07;;;;;;;8.48;2.80;;;;;;;17.69;87.78;64827.47;5053672;28;20655;-55
2023/05/22 11:29:34;;;;;;;6.05;2.88;;;;;;;16.86;94.21;64739.66;5052451;28;20220;-55